createdAt,value
2022-12-03T00:00:12.965Z,1.78
2022-12-03T00:02:40.102Z,1.79
2022-12-03T00:05:06.748Z,1.78
2022-12-03T00:07:33.214Z,1.77
2022-12-03T00:09:59.576Z,1.79
2022-12-03T00:12:25.962Z,1.73
2022-12-03T00:14:52.430Z,1.69
2022-12-03T00:17:18.736Z,1.88
2022-12-03T00:19:45.029Z,1.69
2022-12-03T00:22:12.855Z,1.74
2022-12-03T00:24:39.334Z,1.81
2022-12-03T00:27:05.931Z,1.89
2022-12-03T00:29:32.290Z,1.85
2022-12-03T00:31:58.731Z,1.81
2022-12-03T00:34:25.081Z,1.83
2022-12-03T00:36:51.410Z,1.85
2022-12-03T00:39:17.723Z,1.79
2022-12-03T00:41:44.119Z,1.82
2022-12-03T00:44:11.806Z,1.84
2022-12-03T00:46:38.203Z,1.77
2022-12-03T00:49:04.654Z,1.82
2022-12-03T00:51:30.971Z,1.70
2022-12-03T00:53:57.314Z,1.77
2022-12-03T00:56:23.597Z,1.62
2022-12-03T00:58:49.981Z,1.73
2022-12-03T01:01:16.354Z,1.69
2022-12-03T01:03:42.661Z,1.74
2022-12-03T01:06:09.402Z,1.76
2022-12-03T01:08:35.974Z,1.65
2022-12-03T01:11:02.336Z,1.68
2022-12-03T01:13:28.629Z,1.80
2022-12-03T01:15:55.056Z,1.61
2022-12-03T01:18:21.456Z,1.74
2022-12-03T01:20:47.814Z,1.83
2022-12-03T01:23:14.170Z,1.63
2022-12-03T01:25:40.463Z,1.67
2022-12-03T01:28:06.821Z,1.71
2022-12-03T01:30:53.182Z,1.67
2022-12-03T01:33:19.609Z,1.66
2022-12-03T01:35:45.938Z,1.72
2022-12-03T01:38:12.227Z,1.63
2022-12-03T01:40:38.541Z,1.80
2022-12-03T01:43:04.885Z,1.65
2022-12-03T01:45:31.246Z,1.76
2022-12-03T01:47:57.565Z,1.81
2022-12-03T01:50:31.687Z,1.77
2022-12-03T01:53:01.372Z,1.87
2022-12-03T01:55:27.828Z,1.78
2022-12-03T01:57:57.550Z,1.85
2022-12-03T02:00:29.146Z,1.77
2022-12-03T02:02:57.997Z,1.72
2022-12-03T02:05:27.200Z,1.79
2022-12-03T02:07:54.362Z,1.88
2022-12-03T02:10:26.426Z,1.94
2022-12-03T02:13:02.247Z,1.87
2022-12-03T02:15:28.889Z,1.90
2022-12-03T02:17:55.596Z,1.84
2022-12-03T02:20:22.821Z,1.77
2022-12-03T02:23:12.421Z,1.86
2022-12-03T02:25:39.149Z,1.86
2022-12-03T02:28:08.545Z,1.89
2022-12-03T02:30:35.355Z,1.84
2022-12-03T02:33:02.391Z,1.77
2022-12-03T02:35:33.195Z,1.84
2022-12-03T02:38:18.339Z,1.72
2022-12-03T02:40:46.973Z,1.71
2022-12-03T02:43:16.584Z,1.61
2022-12-03T02:45:46.183Z,1.61
2022-12-03T02:48:19.104Z,1.68
2022-12-03T02:50:54.700Z,1.59
2022-12-03T02:53:31.905Z,1.73
2022-12-03T02:56:00.047Z,1.74
2022-12-03T02:58:28.879Z,1.73
2022-12-03T03:00:55.957Z,1.64
2022-12-03T03:03:24.509Z,1.70
2022-12-03T03:05:51.044Z,1.71
2022-12-03T03:08:18.705Z,1.69
2022-12-03T03:10:47.435Z,1.69
2022-12-03T03:13:15.445Z,1.54
2022-12-03T03:15:42.488Z,1.62
2022-12-03T03:18:10.079Z,1.67
2022-12-03T03:20:37.079Z,1.65
2022-12-03T03:23:14.814Z,1.64
2022-12-03T03:26:01.449Z,1.61
2022-12-03T03:28:29.411Z,1.60
2022-12-03T03:30:57.800Z,1.61
2022-12-03T03:33:24.576Z,1.58
2022-12-03T03:35:51.185Z,1.56
2022-12-03T03:38:20.172Z,1.46
2022-12-03T03:40:48.922Z,1.57
2022-12-03T03:43:15.469Z,1.45
2022-12-03T03:45:43.075Z,1.46
2022-12-03T03:48:10.069Z,1.65
2022-12-03T03:50:36.781Z,1.49
2022-12-03T03:53:04.769Z,1.53
2022-12-03T03:55:32.392Z,1.64
2022-12-03T03:57:58.995Z,1.53
2022-12-03T04:00:25.578Z,1.51
2022-12-03T04:02:52.631Z,1.53
2022-12-03T04:05:21.796Z,1.44
2022-12-03T04:07:48.207Z,1.56
2022-12-03T04:10:34.210Z,1.38
2022-12-03T04:13:01.293Z,1.56
2022-12-03T04:15:28.158Z,1.36
2022-12-03T04:18:13.109Z,1.45
2022-12-03T04:20:39.535Z,1.48
2022-12-03T04:23:06.233Z,1.37
2022-12-03T04:25:51.467Z,1.50
2022-12-03T04:28:36.188Z,1.42
2022-12-03T04:31:22.592Z,1.56
2022-12-03T04:34:07.758Z,1.44
2022-12-03T04:36:34.057Z,1.59
2022-12-03T04:39:00.815Z,1.57
2022-12-03T04:41:27.280Z,1.49
2022-12-03T04:44:12.301Z,1.37
2022-12-03T04:46:38.720Z,1.55
2022-12-03T04:49:05.109Z,1.65
2022-12-03T04:51:31.463Z,1.51
2022-12-03T04:53:57.886Z,1.61
2022-12-03T04:56:24.269Z,1.52
2022-12-03T04:58:50.632Z,1.58
2022-12-03T05:01:17.070Z,1.61
2022-12-03T05:03:43.519Z,1.48
2022-12-03T05:06:09.935Z,1.56
2022-12-03T05:08:36.331Z,1.63
2022-12-03T05:11:02.733Z,1.51
2022-12-03T05:13:29.137Z,1.38
2022-12-03T05:15:55.545Z,1.41
2022-12-03T05:18:21.942Z,1.43
2022-12-03T05:20:53.248Z,1.56
2022-12-03T05:23:20.550Z,1.56
2022-12-03T05:25:47.240Z,1.54
2022-12-03T05:28:13.687Z,1.58
2022-12-03T05:30:40.214Z,1.57
2022-12-03T05:33:06.637Z,1.53
2022-12-03T05:35:33.060Z,1.66
2022-12-03T05:37:59.413Z,1.61
2022-12-03T05:40:25.853Z,1.59
2022-12-03T05:42:55.060Z,1.58
2022-12-03T05:45:26.288Z,1.56
2022-12-03T05:47:53.866Z,1.55
2022-12-03T05:50:23.110Z,1.53
2022-12-03T05:52:49.629Z,1.57
2022-12-03T05:55:16.712Z,1.56
2022-12-03T05:57:43.058Z,1.40
2022-12-03T06:00:18.664Z,1.28
2022-12-03T06:02:45.728Z,1.42
2022-12-03T06:05:13.362Z,1.43
2022-12-03T06:07:39.847Z,1.36
2022-12-03T06:10:08.321Z,1.28
2022-12-03T06:12:34.658Z,1.30
2022-12-03T06:15:01.005Z,1.31
2022-12-03T06:17:27.612Z,1.24
2022-12-03T06:19:53.961Z,1.36
2022-12-03T06:22:20.252Z,1.34
2022-12-03T06:24:46.605Z,1.31
2022-12-03T06:27:12.945Z,1.34
2022-12-03T06:29:39.301Z,1.36
2022-12-03T06:32:05.876Z,1.28
2022-12-03T06:34:32.235Z,1.21
2022-12-03T06:36:58.578Z,1.15
2022-12-03T06:39:24.998Z,1.24
2022-12-03T06:41:51.562Z,1.41
2022-12-03T06:44:17.947Z,1.48
2022-12-03T06:46:44.473Z,1.53
2022-12-03T06:49:10.910Z,1.46
2022-12-03T06:51:37.393Z,1.37
2022-12-03T06:54:04.666Z,1.36
2022-12-03T06:56:36.776Z,1.34
2022-12-03T06:59:05.529Z,1.26
2022-12-03T07:01:31.864Z,1.18
2022-12-03T07:03:58.269Z,1.23
2022-12-03T07:06:24.557Z,1.17
2022-12-03T07:08:50.893Z,1.08
2022-12-03T07:11:32.811Z,1.18
2022-12-03T07:14:05.014Z,1.21
2022-12-03T07:16:32.168Z,1.17
2022-12-03T07:18:58.572Z,1.21
2022-12-03T07:21:24.973Z,1.23
2022-12-03T07:23:51.393Z,1.12
2022-12-03T07:26:17.714Z,1.15
2022-12-03T07:28:44.052Z,1.22
2022-12-03T07:31:10.464Z,1.31
2022-12-03T07:33:36.873Z,1.26
2022-12-03T07:36:03.345Z,1.26
2022-12-03T07:38:44.891Z,1.18
2022-12-03T07:41:11.270Z,1.17
2022-12-03T07:43:37.560Z,1.07
2022-12-03T07:46:03.889Z,0.93
2022-12-03T07:48:30.288Z,1.22
2022-12-03T07:50:56.581Z,1.21
2022-12-03T07:53:22.872Z,1.04
2022-12-03T07:55:49.219Z,1.08
2022-12-03T07:58:15.643Z,0.96
2022-12-03T08:00:42.140Z,1.09
2022-12-03T08:03:08.449Z,1.01
2022-12-03T08:05:34.769Z,1.05
2022-12-03T08:08:01.414Z,1.09
2022-12-03T08:10:27.910Z,1.22
2022-12-03T08:12:59.543Z,1.28
2022-12-03T08:15:31.165Z,1.26
2022-12-03T08:18:11.936Z,1.32
2022-12-03T08:20:40.573Z,1.33
2022-12-03T08:23:12.511Z,1.29
2022-12-03T08:25:39.235Z,1.40
2022-12-03T08:28:13.620Z,1.44
2022-12-03T08:30:41.688Z,1.28
2022-12-03T08:33:37.874Z,1.30
2022-12-03T08:36:21.237Z,1.14
2022-12-03T08:38:51.740Z,1.21
2022-12-03T08:41:39.446Z,1.09
2022-12-03T08:44:20.289Z,1.04
2022-12-03T08:46:52.770Z,1.21
2022-12-03T08:49:21.404Z,1.24
2022-12-03T08:51:48.622Z,1.39
2022-12-03T08:54:19.959Z,1.45
2022-12-03T08:56:46.301Z,1.62
2022-12-03T08:59:30.505Z,1.42
2022-12-03T09:01:59.039Z,1.47
2022-12-03T09:04:46.095Z,1.47
2022-12-03T09:07:12.438Z,1.60
2022-12-03T09:09:38.841Z,1.51
2022-12-03T09:12:05.361Z,1.59
2022-12-03T09:14:31.727Z,1.70
2022-12-03T09:16:58.118Z,1.48
2022-12-03T09:19:26.833Z,1.66
2022-12-03T09:21:54.401Z,1.58
2022-12-03T09:24:21.018Z,1.57
2022-12-03T09:26:47.326Z,1.49
2022-12-03T09:29:13.764Z,1.63
2022-12-03T09:31:40.755Z,1.59
2022-12-03T09:34:08.014Z,1.77
2022-12-03T09:36:34.365Z,1.65
2022-12-03T09:39:00.771Z,1.67
2022-12-03T09:41:27.205Z,1.66
2022-12-03T09:44:13.987Z,1.53
2022-12-03T09:46:41.690Z,1.65
2022-12-03T09:49:15.735Z,1.51
2022-12-03T09:51:44.241Z,1.76
2022-12-03T09:54:20.344Z,1.82
2022-12-03T09:56:46.682Z,1.72
2022-12-03T09:59:14.466Z,1.80
2022-12-03T10:01:41.178Z,1.87
2022-12-03T10:04:08.030Z,1.78
2022-12-03T10:06:34.597Z,1.68
2022-12-03T10:09:00.995Z,1.65
2022-12-03T10:11:29.489Z,1.78
2022-12-03T10:13:58.137Z,1.64
2022-12-03T10:16:25.702Z,1.60
2022-12-03T10:18:58.323Z,1.60
2022-12-03T10:21:37.553Z,1.64
2022-12-03T10:24:25.644Z,1.69
2022-12-03T10:26:54.552Z,1.76
2022-12-03T10:29:35.568Z,1.73
2022-12-03T10:32:07.810Z,1.65
2022-12-03T10:34:41.576Z,1.68
2022-12-03T10:37:19.529Z,1.82
2022-12-03T10:40:12.201Z,1.58
2022-12-03T10:42:40.450Z,1.61
2022-12-03T10:45:14.669Z,1.56
2022-12-03T10:47:42.622Z,1.79
2022-12-03T10:50:19.355Z,1.71
2022-12-03T10:52:46.540Z,1.65
2022-12-03T10:55:13.762Z,1.60
2022-12-03T10:57:45.246Z,1.67
2022-12-03T11:00:17.280Z,1.56
2022-12-03T11:02:43.773Z,1.59
2022-12-03T11:05:16.942Z,1.50
2022-12-03T11:07:44.630Z,1.59
2022-12-03T11:10:19.344Z,1.64
2022-12-03T11:13:23.441Z,1.72
2022-12-03T11:15:49.868Z,1.62
2022-12-03T11:18:54.841Z,1.59
2022-12-03T11:21:21.139Z,1.64
2022-12-03T11:23:47.370Z,1.59
2022-12-03T11:26:19.233Z,1.71
2022-12-03T11:28:46.015Z,1.54
2022-12-03T11:31:36.282Z,1.49
2022-12-03T11:34:20.714Z,1.65
2022-12-03T11:37:08.875Z,1.58
2022-12-03T11:39:44.522Z,1.49
2022-12-03T11:42:26.081Z,1.58
2022-12-03T11:45:05.166Z,1.59
2022-12-03T11:47:37.901Z,1.47
2022-12-03T11:50:28.657Z,1.64
2022-12-03T11:53:10.359Z,1.48
2022-12-03T11:55:48.372Z,1.45
2022-12-03T11:58:28.761Z,1.49
2022-12-03T12:00:57.686Z,1.35
2022-12-03T12:03:36.507Z,1.48
2022-12-03T12:06:15.009Z,1.55
2022-12-03T12:08:56.596Z,1.44
2022-12-03T12:11:30.996Z,1.38
2022-12-03T12:14:01.108Z,1.50
2022-12-03T12:16:50.099Z,1.28
2022-12-03T12:19:37.896Z,1.50
2022-12-03T12:22:22.482Z,1.49
2022-12-03T12:24:53.288Z,1.57
2022-12-03T12:27:30.786Z,1.33
2022-12-03T12:29:59.927Z,1.50
2022-12-03T12:32:32.287Z,1.43
2022-12-03T12:35:21.454Z,1.40
2022-12-03T12:37:56.786Z,1.39
2022-12-03T12:40:28.944Z,1.24
2022-12-03T12:43:29.387Z,1.41
2022-12-03T12:46:13.572Z,1.47
2022-12-03T12:48:46.273Z,1.36
2022-12-03T12:51:15.369Z,1.33
2022-12-03T12:53:44.750Z,1.17
2022-12-03T12:56:27.885Z,1.33
2022-12-03T12:58:56.915Z,1.33
2022-12-03T13:01:30.897Z,1.43
2022-12-03T13:03:58.303Z,1.26
2022-12-03T13:06:30.020Z,1.42
2022-12-03T13:08:57.265Z,1.39
2022-12-03T13:11:34.985Z,1.24
2022-12-03T13:14:10.613Z,1.39
2022-12-03T13:16:37.107Z,1.34
2022-12-03T13:19:16.669Z,1.31
2022-12-03T13:21:44.397Z,1.29
2022-12-03T13:24:38.776Z,1.36
2022-12-03T13:27:22.878Z,1.55
2022-12-03T13:29:51.357Z,1.38
2022-12-03T13:32:23.101Z,1.36
2022-12-03T13:34:55.174Z,1.28
2022-12-03T13:37:26.346Z,1.44
2022-12-03T13:39:57.299Z,1.51
2022-12-03T13:42:46.430Z,1.34
2022-12-03T13:45:18.872Z,1.34
2022-12-03T13:47:50.188Z,1.39
2022-12-03T13:50:33.215Z,1.36
2022-12-03T13:53:15.930Z,1.38
2022-12-03T13:55:48.171Z,1.31
2022-12-03T13:58:14.715Z,1.33
2022-12-03T14:00:41.381Z,1.30
2022-12-03T14:03:07.800Z,1.33
2022-12-03T14:05:34.246Z,1.37
2022-12-03T14:08:03.359Z,1.33
2022-12-03T14:10:29.844Z,1.45
2022-12-03T14:12:57.068Z,1.54
2022-12-03T14:15:24.817Z,1.57
2022-12-03T14:17:51.259Z,1.52
2022-12-03T14:20:18.312Z,1.44
2022-12-03T14:22:44.717Z,1.52
2022-12-03T14:25:11.450Z,1.57
2022-12-03T14:27:37.797Z,1.54
2022-12-03T14:30:05.306Z,1.58
2022-12-03T14:32:31.860Z,1.44
2022-12-03T14:34:58.189Z,1.57
2022-12-03T14:37:24.545Z,1.51
2022-12-03T14:39:50.937Z,1.50
2022-12-03T14:42:19.407Z,1.51
2022-12-03T14:44:48.259Z,1.40
2022-12-03T14:47:16.618Z,1.44
2022-12-03T14:49:43.068Z,1.46
2022-12-03T14:52:12.159Z,1.51
2022-12-03T14:54:41.832Z,1.51
2022-12-03T14:57:08.783Z,1.53
2022-12-03T14:59:35.125Z,1.44
2022-12-03T15:02:01.614Z,1.38
2022-12-03T15:04:28.075Z,1.44
2022-12-03T15:06:54.433Z,1.34
2022-12-03T15:09:21.026Z,1.45
2022-12-03T15:11:47.336Z,1.37
2022-12-03T15:14:13.842Z,1.39
2022-12-03T15:16:40.232Z,1.35
2022-12-03T15:19:06.636Z,1.15
2022-12-03T15:21:34.855Z,1.35
2022-12-03T15:24:02.014Z,1.40
2022-12-03T15:26:28.424Z,1.45
2022-12-03T15:28:54.827Z,1.34
2022-12-03T15:31:21.343Z,1.39
2022-12-03T15:33:47.719Z,1.41
2022-12-03T15:36:14.085Z,1.40
2022-12-03T15:38:40.445Z,1.35
2022-12-03T15:41:31.999Z,1.35
2022-12-03T15:44:01.877Z,1.45
2022-12-03T15:46:29.464Z,1.40
2022-12-03T15:48:55.900Z,1.48
2022-12-03T15:51:22.388Z,1.49
2022-12-03T15:53:48.830Z,1.39
2022-12-03T15:56:15.895Z,1.28
2022-12-03T15:58:42.315Z,1.38
2022-12-03T16:01:09.577Z,1.25
2022-12-03T16:03:36.298Z,1.32
2022-12-03T16:06:02.972Z,1.44
2022-12-03T16:08:29.403Z,1.35
2022-12-03T16:10:55.716Z,1.35
2022-12-03T16:13:22.068Z,1.29
2022-12-03T16:15:48.507Z,1.27
2022-12-03T16:18:14.982Z,1.25
2022-12-03T16:20:41.386Z,1.29
2022-12-03T16:23:08.170Z,1.18
2022-12-03T16:25:34.622Z,1.28
2022-12-03T16:28:00.926Z,1.35
2022-12-03T16:30:27.279Z,1.35
2022-12-03T16:32:53.696Z,1.26
2022-12-03T16:35:19.993Z,1.30
2022-12-03T16:37:46.289Z,1.25
2022-12-03T16:40:12.756Z,1.24
2022-12-03T16:42:39.525Z,1.23
2022-12-03T16:45:09.270Z,1.23
2022-12-03T16:47:35.593Z,1.21
2022-12-03T16:50:03.283Z,1.25
2022-12-03T16:52:29.629Z,1.23
2022-12-03T16:54:55.932Z,1.20
2022-12-03T16:57:22.196Z,1.20
2022-12-03T16:59:48.522Z,1.20
2022-12-03T17:02:14.944Z,1.22
2022-12-03T17:04:41.494Z,1.29
2022-12-03T17:07:07.837Z,1.25
2022-12-03T17:09:34.230Z,1.27
2022-12-03T17:12:00.649Z,1.21
2022-12-03T17:14:32.829Z,1.24
2022-12-03T17:16:59.851Z,1.23
2022-12-03T17:19:26.169Z,1.27
2022-12-03T17:21:53.923Z,1.14
2022-12-03T17:24:21.231Z,1.19
2022-12-03T17:26:47.536Z,1.17
2022-12-03T17:29:14.152Z,1.26
2022-12-03T17:31:42.591Z,1.18
2022-12-03T17:34:09.405Z,1.15
2022-12-03T17:36:35.813Z,1.28
2022-12-03T17:39:02.145Z,1.36
2022-12-03T17:41:28.414Z,1.22
2022-12-03T17:43:54.789Z,1.25
2022-12-03T17:46:21.265Z,1.27
2022-12-03T17:48:47.694Z,1.37
2022-12-03T17:51:14.012Z,1.32
2022-12-03T17:53:40.351Z,1.33
2022-12-03T17:56:06.767Z,1.29
2022-12-03T17:58:33.312Z,1.37
2022-12-03T18:01:02.811Z,1.27
2022-12-03T18:03:30.097Z,1.26
2022-12-03T18:05:56.604Z,1.26
2022-12-03T18:08:22.964Z,1.30
2022-12-03T18:10:49.490Z,1.30
2022-12-03T18:13:15.849Z,1.44
2022-12-03T18:15:42.222Z,1.17
2022-12-03T18:18:08.597Z,1.31
2022-12-03T18:20:35.350Z,1.23
2022-12-03T18:23:02.021Z,1.30
2022-12-03T18:25:29.049Z,1.28
2022-12-03T18:27:55.509Z,1.22
2022-12-03T18:30:22.197Z,1.24
2022-12-03T18:32:48.692Z,1.23
2022-12-03T18:35:15.093Z,1.11
2022-12-03T18:37:41.469Z,1.35
2022-12-03T18:40:13.306Z,1.23
2022-12-03T18:42:39.905Z,1.24
2022-12-03T18:45:06.921Z,1.28
2022-12-03T18:47:33.286Z,1.27
2022-12-03T18:49:59.754Z,1.18
2022-12-03T18:52:26.200Z,1.25
2022-12-03T18:54:52.899Z,1.09
2022-12-03T18:57:19.294Z,1.14
2022-12-03T18:59:45.702Z,1.30
2022-12-03T19:05:07.776Z,1.23
2022-12-03T19:07:34.256Z,1.28
2022-12-03T19:10:00.637Z,1.28
2022-12-03T19:12:27.065Z,1.30
2022-12-03T19:14:53.337Z,1.28
2022-12-03T19:17:19.709Z,1.30
2022-12-03T19:19:46.583Z,1.26
2022-12-03T19:22:13.064Z,1.31
2022-12-03T19:24:39.365Z,1.28
2022-12-03T19:27:05.694Z,1.22
2022-12-03T19:29:31.981Z,1.25
2022-12-03T19:31:58.362Z,1.33
2022-12-03T19:34:24.958Z,1.30
2022-12-03T19:36:51.371Z,1.25
2022-12-03T19:39:17.883Z,1.24
2022-12-03T19:41:44.671Z,1.22
2022-12-03T19:44:13.554Z,1.36
2022-12-03T19:46:40.713Z,1.24
2022-12-03T19:49:07.315Z,1.45
2022-12-03T19:51:35.620Z,1.28
2022-12-03T19:54:07.158Z,1.46
2022-12-03T19:56:34.441Z,1.54
2022-12-03T19:59:01.104Z,1.37
2022-12-03T20:01:29.532Z,1.46
2022-12-03T20:03:58.753Z,1.43
2022-12-03T20:06:27.809Z,1.45
2022-12-03T20:08:59.166Z,1.30
2022-12-03T20:11:31.053Z,1.29
2022-12-03T20:14:00.226Z,1.27
2022-12-03T20:16:27.747Z,1.24
2022-12-03T20:19:03.446Z,1.24
2022-12-03T20:21:31.684Z,1.27
2022-12-03T20:23:58.352Z,1.31
2022-12-03T20:26:25.361Z,1.29
2022-12-03T20:28:54.794Z,1.30
2022-12-03T20:31:26.506Z,1.25
2022-12-03T20:33:56.499Z,1.34
2022-12-03T20:36:23.796Z,1.50
2022-12-03T20:38:59.001Z,1.28
2022-12-03T20:41:25.699Z,1.32
2022-12-03T20:43:52.742Z,1.23
2022-12-03T20:46:22.128Z,1.32
2022-12-03T20:48:48.737Z,1.34
2022-12-03T20:51:21.010Z,1.33
2022-12-03T20:53:47.897Z,1.32
2022-12-03T20:56:23.308Z,1.37
2022-12-03T20:58:50.431Z,1.25
2022-12-03T21:01:22.991Z,1.22
2022-12-03T21:03:51.453Z,1.25
2022-12-03T21:06:17.775Z,1.35
2022-12-03T21:08:44.711Z,1.48
2022-12-03T21:11:16.805Z,1.35
2022-12-03T21:13:43.944Z,1.39
2022-12-03T21:16:13.676Z,1.37
2022-12-03T21:18:41.145Z,1.43
2022-12-03T21:21:08.453Z,1.49
2022-12-03T21:23:35.189Z,1.38
2022-12-03T21:26:07.882Z,1.45
2022-12-03T21:28:34.792Z,1.40
2022-12-03T21:31:06.839Z,1.35
2022-12-03T21:33:34.081Z,1.39
2022-12-03T21:36:01.298Z,1.17
2022-12-03T21:38:28.535Z,1.32
2022-12-03T21:40:55.421Z,1.28
2022-12-03T21:43:22.469Z,1.36
2022-12-03T21:45:49.725Z,1.36
2022-12-03T21:48:16.965Z,1.41
2022-12-03T21:50:43.652Z,1.49
2022-12-03T21:53:11.021Z,1.45
2022-12-03T21:55:41.266Z,1.41
2022-12-03T21:58:08.691Z,1.45
2022-12-03T22:00:35.754Z,1.50
2022-12-03T22:03:02.147Z,1.50
2022-12-03T22:05:28.484Z,1.52
2022-12-03T22:07:54.835Z,1.48
2022-12-03T22:10:21.241Z,1.48
2022-12-03T22:12:47.549Z,1.43
2022-12-03T22:15:18.836Z,1.58
2022-12-03T22:17:46.286Z,1.54
2022-12-03T22:20:12.987Z,1.68
2022-12-03T22:22:39.290Z,1.56
2022-12-03T22:25:05.758Z,1.59
2022-12-03T22:27:32.064Z,1.64
2022-12-03T22:29:58.428Z,1.70
2022-12-03T22:32:24.861Z,1.71
2022-12-03T22:34:51.348Z,1.63
2022-12-03T22:37:17.678Z,1.70
2022-12-03T22:39:44.028Z,1.64
2022-12-03T22:42:10.427Z,1.71
2022-12-03T22:44:36.763Z,1.57
2022-12-03T22:47:03.466Z,1.63
2022-12-03T22:49:29.768Z,1.61
2022-12-03T22:51:56.169Z,1.59
2022-12-03T22:54:24.276Z,1.50
2022-12-03T22:56:50.791Z,1.60
2022-12-03T22:59:17.110Z,1.66
2022-12-03T23:01:43.446Z,1.60
2022-12-03T23:04:10.899Z,1.53
2022-12-03T23:06:38.304Z,1.66
2022-12-03T23:09:06.444Z,1.51
2022-12-03T23:11:33.203Z,1.45
2022-12-03T23:13:59.661Z,1.63
2022-12-03T23:16:29.258Z,1.68
2022-12-03T23:18:58.182Z,1.68
2022-12-03T23:21:29.862Z,1.63
2022-12-03T23:23:58.564Z,1.63
2022-12-03T23:26:24.936Z,1.58
2022-12-03T23:28:51.226Z,1.61
2022-12-03T23:31:23.786Z,1.66
2022-12-03T23:33:53.244Z,1.68
2022-12-03T23:36:21.023Z,1.66
2022-12-03T23:38:47.332Z,1.61
2022-12-03T23:41:16.666Z,1.64
2022-12-03T23:43:43.412Z,1.64
2022-12-03T23:46:19.651Z,1.63
2022-12-03T23:48:46.026Z,1.66
2022-12-03T23:51:15.233Z,1.63
2022-12-03T23:53:41.751Z,1.50
2022-12-03T23:56:10.286Z,1.55
2022-12-03T23:58:37.104Z,1.61
